createdAt,value
2023-03-26T00:02:03.144Z,99797.50
2023-03-26T00:05:07.782Z,99803.72
2023-03-26T00:08:11.192Z,99805.50
2023-03-26T00:11:16.168Z,99809.06
2023-03-26T00:14:18.743Z,99798.38
2023-03-26T00:17:22.102Z,99795.72
2023-03-26T00:20:24.981Z,99804.63
2023-03-26T00:23:29.003Z,99786.81
2023-03-26T00:26:33.784Z,99795.72
2023-03-26T00:29:36.920Z,99797.50
2023-03-26T00:32:39.756Z,99800.16
2023-03-26T00:35:47.329Z,99789.47
2023-03-26T00:38:50.059Z,99791.28
2023-03-26T00:41:54.573Z,99795.72
2023-03-26T00:45:00.644Z,99798.38
2023-03-26T00:48:04.247Z,99774.38
2023-03-26T00:51:08.814Z,99793.03
2023-03-26T00:54:11.940Z,99785.94
2023-03-26T00:57:20.293Z,99787.72
2023-03-26T01:00:36.520Z,99789.50
2023-03-26T01:03:39.822Z,99781.50
2023-03-26T01:06:45.279Z,99789.50
2023-03-26T01:09:52.711Z,99777.03
2023-03-26T01:12:56.114Z,99777.03
2023-03-26T01:16:01.984Z,99774.38
2023-03-26T01:19:16.600Z,99775.25
2023-03-26T01:22:23.710Z,99776.16
2023-03-26T01:25:29.821Z,99768.09
2023-03-26T01:28:34.305Z,99772.59
2023-03-26T01:32:22.676Z,99766.38
2023-03-26T01:35:53.545Z,99757.47
2023-03-26T01:39:27.950Z,99756.56
2023-03-26T01:42:37.961Z,99753.03
2023-03-26T01:45:42.502Z,99749.47
2023-03-26T01:48:47.183Z,99751.25
2023-03-26T01:51:51.285Z,99744.13
2023-03-26T01:54:55.598Z,99740.56
2023-03-26T01:58:08.925Z,99724.56
2023-03-26T02:01:31.156Z,99744.16
2023-03-26T02:04:38.507Z,99736.16
2023-03-26T02:07:59.015Z,99734.37
2023-03-26T02:11:11.847Z,99725.47
2023-03-26T02:14:15.389Z,99715.72
2023-03-26T02:17:19.399Z,99721.91
2023-03-26T02:20:23.888Z,99729.91
2023-03-26T02:23:29.728Z,99721.88
2023-03-26T02:26:34.532Z,99726.34
2023-03-26T02:29:40.564Z,99723.66
2023-03-26T02:32:44.221Z,99718.34
2023-03-26T02:35:47.021Z,99717.44
2023-03-26T02:38:50.798Z,99722.78
2023-03-26T02:41:53.582Z,99719.22
2023-03-26T02:44:56.597Z,99723.56
2023-03-26T02:48:03.634Z,99727.13
2023-03-26T02:51:07.836Z,99721.78
2023-03-26T02:54:10.956Z,99728.03
2023-03-26T02:57:15.723Z,99723.59
2023-03-26T03:00:22.132Z,99726.25
2023-03-26T03:03:31.699Z,99723.59
2023-03-26T03:06:35.723Z,99718.31
2023-03-26T03:09:38.750Z,99723.59
2023-03-26T03:12:44.791Z,99736.09
2023-03-26T03:15:47.750Z,99743.19
2023-03-26T03:18:54.645Z,99743.13
2023-03-26T03:34:38.707Z,99739.94
2023-03-26T03:38:20.039Z,99739.94
2023-03-26T03:42:18.996Z,99743.59
2023-03-26T03:46:18.104Z,99744.81
2023-03-26T03:54:18.654Z,99746.38
2023-03-26T03:58:21.883Z,99746.59
2023-03-26T04:02:26.423Z,99739.06
2023-03-26T04:06:18.931Z,99736.97
2023-03-26T04:10:18.363Z,99738.34
2023-03-26T04:14:19.727Z,99732.16
2023-03-26T04:18:18.677Z,99735.91
2023-03-26T04:22:18.491Z,99736.75
2023-03-26T04:26:20.028Z,99734.09
2023-03-26T04:30:20.614Z,99729.41
2023-03-26T04:34:19.218Z,99735.91
2023-03-26T04:38:18.906Z,99720.22
2023-03-26T04:42:17.911Z,99728.44
2023-03-26T04:46:18.570Z,99729.66
2023-03-26T04:50:18.026Z,99721.00
2023-03-26T04:54:17.015Z,99716.84
2023-03-26T04:58:18.476Z,99720.56
2023-03-26T05:02:18.161Z,99717.06
2023-03-26T05:06:17.757Z,99711.81
2023-03-26T05:10:20.083Z,99712.69
2023-03-26T05:14:19.558Z,99720.75
2023-03-26T05:18:17.424Z,99726.06
2023-03-26T05:26:17.270Z,99716.16
2023-03-26T05:30:19.537Z,99716.25
2023-03-26T05:34:18.425Z,99720.81
2023-03-26T05:38:18.189Z,99719.81
2023-03-26T05:42:17.133Z,99710.75
2023-03-26T05:46:17.595Z,99717.03
2023-03-26T05:50:18.893Z,99710.78
2023-03-26T05:54:18.517Z,99714.19
2023-03-26T05:58:19.400Z,99713.88
2023-03-26T06:02:17.518Z,99722.50
2023-03-26T06:10:19.134Z,99727.13
2023-03-26T06:14:17.685Z,99718.63
2023-03-26T06:18:17.873Z,99713.00
2023-03-26T06:22:17.186Z,99717.28
2023-03-26T06:26:18.958Z,99723.38
2023-03-26T06:30:17.961Z,99715.06
2023-03-26T06:34:17.605Z,99709.47
2023-03-26T06:38:19.741Z,99721.03
2023-03-26T06:42:18.145Z,99717.78
2023-03-26T06:46:17.498Z,99725.13
2023-03-26T06:50:19.924Z,99714.13
2023-03-26T06:54:20.484Z,99712.50
2023-03-26T06:57:23.269Z,99710.00
2023-03-26T07:00:29.600Z,99704.78
2023-03-26T07:03:38.501Z,99712.59
2023-03-26T07:06:50.380Z,99710.63
2023-03-26T07:10:03.937Z,99714.19
2023-03-26T07:13:09.449Z,99720.31
2023-03-26T07:16:14.177Z,99713.31
2023-03-26T07:19:18.235Z,99710.44
2023-03-26T07:22:23.227Z,99716.47
2023-03-26T07:25:29.434Z,99719.09
2023-03-26T07:28:39.344Z,99718.16
2023-03-26T07:31:46.066Z,99715.41
2023-03-26T07:35:21.614Z,99713.69
2023-03-26T07:38:55.952Z,99716.69
2023-03-26T07:42:27.237Z,99717.94
2023-03-26T07:45:40.074Z,99701.47
2023-03-26T07:48:47.850Z,99701.63
2023-03-26T07:51:51.133Z,99686.81
2023-03-26T07:54:56.752Z,99689.53
2023-03-26T07:58:21.266Z,99679.59
2023-03-26T08:01:24.167Z,99688.16
2023-03-26T08:04:48.634Z,99675.00
2023-03-26T08:08:16.569Z,99671.94
2023-03-26T08:11:33.314Z,99671.31
2023-03-26T08:14:45.479Z,99667.84
2023-03-26T08:17:54.731Z,99656.88
2023-03-26T08:21:06.330Z,99649.72
2023-03-26T08:24:22.975Z,99644.84
2023-03-26T08:27:51.848Z,99643.03
2023-03-26T08:30:55.300Z,99634.78
2023-03-26T08:33:58.530Z,99634.34
2023-03-26T08:37:01.634Z,99620.50
2023-03-26T08:40:04.440Z,99624.72
2023-03-26T08:43:41.560Z,99630.03
2023-03-26T08:47:02.602Z,99619.41
2023-03-26T08:50:31.174Z,99617.31
2023-03-26T08:53:55.625Z,99608.16
2023-03-26T08:57:36.219Z,99609.78
2023-03-26T09:00:41.589Z,99606.56
2023-03-26T09:03:44.402Z,99591.66
2023-03-26T09:07:07.771Z,99603.13
2023-03-26T09:10:33.767Z,99596.87
2023-03-26T09:14:00.364Z,99577.88
2023-03-26T09:17:34.055Z,99588.59
2023-03-26T09:20:59.174Z,99585.31
2023-03-26T09:24:21.033Z,99579.03
2023-03-26T09:27:26.576Z,99576.06
2023-03-26T09:30:47.417Z,99562.62
2023-03-26T09:34:01.936Z,99560.94
2023-03-26T09:37:11.677Z,99563.84
2023-03-26T09:40:20.347Z,99546.19
2023-03-26T09:43:43.406Z,99541.81
2023-03-26T09:47:13.167Z,99527.66
2023-03-26T09:50:27.167Z,99516.41
2023-03-26T09:53:39.593Z,99520.47
2023-03-26T09:56:48.481Z,99521.09
2023-03-26T10:00:18.831Z,99508.84
2023-03-26T10:03:39.207Z,99504.44
2023-03-26T10:06:48.696Z,99498.41
2023-03-26T10:09:59.663Z,99496.22
2023-03-26T10:13:37.824Z,99493.53
2023-03-26T10:16:55.758Z,99491.03
2023-03-26T10:20:17.801Z,99475.25
2023-03-26T10:23:28.594Z,99464.53
2023-03-26T10:26:39.778Z,99465.06
2023-03-26T10:30:18.233Z,99461.09
2023-03-26T10:33:50.317Z,99451.59
2023-03-26T10:37:21.007Z,99452.13
2023-03-26T10:40:31.679Z,99442.06
2023-03-26T10:44:01.600Z,99430.94
2023-03-26T10:47:12.804Z,99430.66
2023-03-26T10:50:32.179Z,99426.34
2023-03-26T10:53:40.858Z,99425.25
2023-03-26T10:56:49.760Z,99424.16
2023-03-26T10:59:56.039Z,99423.47
2023-03-26T11:03:21.109Z,99404.38
2023-03-26T11:06:31.419Z,99401.28
2023-03-26T11:09:49.426Z,99394.50
2023-03-26T11:13:08.891Z,99390.69
2023-03-26T11:16:23.625Z,99381.19
2023-03-26T11:19:58.072Z,99374.38
2023-03-26T11:23:20.096Z,99355.06
2023-03-26T11:26:29.093Z,99352.47
2023-03-26T11:30:11.292Z,99342.06
2023-03-26T11:33:21.293Z,99333.38
2023-03-26T11:36:29.770Z,99326.16
2023-03-26T11:39:48.552Z,99331.66
2023-03-26T11:42:56.370Z,99310.44
2023-03-26T11:45:59.923Z,99300.59
2023-03-26T11:49:11.162Z,99295.72
2023-03-26T11:52:15.800Z,99288.88
2023-03-26T11:55:18.929Z,99282.28
2023-03-26T11:58:26.442Z,99279.50
2023-03-26T12:01:41.726Z,99264.47
2023-03-26T12:04:51.515Z,99244.31
2023-03-26T12:07:58.018Z,99244.31
2023-03-26T12:11:05.248Z,99235.91
2023-03-26T12:14:08.102Z,99239.06
2023-03-26T12:17:34.112Z,99231.31
2023-03-26T12:20:38.604Z,99228.31
2023-03-26T12:24:01.291Z,99221.66
2023-03-26T12:27:20.709Z,99209.28
2023-03-26T12:30:26.928Z,99194.16
2023-03-26T12:33:34.403Z,99199.72
2023-03-26T12:36:39.058Z,99198.44
2023-03-26T12:40:09.853Z,99205.75
2023-03-26T12:44:48.103Z,99194.50
2023-03-26T12:47:58.788Z,99189.81
2023-03-26T12:50:15.148Z,99185.16
2023-03-26T12:53:54.605Z,99179.88
2023-03-26T12:57:17.003Z,99173.06
2023-03-26T13:00:32.541Z,99160.81
2023-03-26T13:03:45.321Z,99162.19
2023-03-26T13:07:10.861Z,99165.50
2023-03-26T13:11:03.024Z,99161.69
2023-03-26T13:14:29.392Z,99155.06
2023-03-26T13:17:43.634Z,99157.31
2023-03-26T13:21:15.487Z,99144.47
2023-03-26T13:24:28.016Z,99140.50
2023-03-26T13:27:35.968Z,99131.53
2023-03-26T13:31:08.812Z,99128.78
2023-03-26T13:34:33.493Z,99118.78
2023-03-26T13:37:51.435Z,99119.44
2023-03-26T13:41:22.152Z,99116.06
2023-03-26T13:44:31.216Z,99097.41
2023-03-26T13:47:39.887Z,99102.59
2023-03-26T13:50:45.736Z,99104.34
2023-03-26T13:53:52.677Z,99110.66
2023-03-26T13:57:10.174Z,99099.50
2023-03-26T14:00:21.911Z,99100.66
2023-03-26T14:03:49.411Z,99099.78
2023-03-26T14:07:07.450Z,99094.69
2023-03-26T14:10:15.575Z,99069.16
2023-03-26T14:13:29.801Z,99075.31
2023-03-26T14:16:40.373Z,99054.34
2023-03-26T14:19:47.418Z,99060.84
2023-03-26T14:23:00.407Z,99064.31
2023-03-26T14:26:21.645Z,99058.34
2023-03-26T14:29:38.073Z,99057.84
2023-03-26T14:33:03.312Z,99060.31
2023-03-26T14:36:51.075Z,99064.88
2023-03-26T14:40:08.067Z,99047.28
2023-03-26T14:43:38.238Z,99039.81
2023-03-26T14:47:02.374Z,99040.53
2023-03-26T14:50:36.041Z,99031.41
2023-03-26T14:53:45.723Z,99021.84
2023-03-26T14:57:26.414Z,99009.13
2023-03-26T15:00:38.990Z,98990.66
2023-03-26T15:04:09.623Z,98962.19
2023-03-26T15:07:43.093Z,98950.59
2023-03-26T15:11:02.221Z,98935.94
2023-03-26T15:14:19.682Z,98935.03
2023-03-26T15:17:32.141Z,98955.25
2023-03-26T15:20:56.528Z,98956.53
2023-03-26T15:24:05.917Z,98949.91
2023-03-26T15:27:30.270Z,98944.09
2023-03-26T15:31:06.646Z,98947.00
2023-03-26T15:34:28.090Z,98951.88
2023-03-26T15:37:57.270Z,98935.84
2023-03-26T15:41:45.546Z,98938.66
2023-03-26T15:44:55.375Z,98925.84
2023-03-26T15:48:19.107Z,98919.63
2023-03-26T15:51:54.591Z,98918.72
2023-03-26T15:55:27.813Z,98918.19
2023-03-26T15:58:38.189Z,98924.25
2023-03-26T16:02:02.846Z,98911.81
2023-03-26T16:05:27.947Z,98922.03
2023-03-26T16:09:14.880Z,98904.44
2023-03-26T16:12:26.256Z,98909.38
2023-03-26T16:15:31.992Z,98900.75
2023-03-26T16:18:35.975Z,98893.03
2023-03-26T16:21:43.743Z,98894.22
2023-03-26T16:24:47.854Z,98896.13
2023-03-26T16:28:17.212Z,98884.16
2023-03-26T16:31:38.211Z,98881.47
2023-03-26T16:34:53.369Z,98884.59
2023-03-26T16:38:13.963Z,98893.97
2023-03-26T16:41:45.282Z,98895.72
2023-03-26T16:44:53.235Z,98884.31
2023-03-26T16:47:59.025Z,98871.97
2023-03-26T16:51:12.419Z,98872.34
2023-03-26T16:54:25.541Z,98868.13
2023-03-26T16:57:36.968Z,98868.44
2023-03-26T17:00:49.720Z,98849.41
2023-03-26T17:04:02.644Z,98865.44
2023-03-26T17:07:23.792Z,98870.09
2023-03-26T17:10:57.117Z,98868.34
2023-03-26T17:14:17.979Z,98864.97
2023-03-26T17:17:36.912Z,98860.53
2023-03-26T17:20:49.372Z,98867.03
2023-03-26T17:24:07.902Z,98879.97
2023-03-26T17:27:36.000Z,98880.13
2023-03-26T17:30:45.450Z,98874.84
2023-03-26T17:33:48.559Z,98887.44
2023-03-26T17:36:58.976Z,98889.25
2023-03-26T17:40:01.723Z,98887.78
2023-03-26T17:43:12.636Z,98931.09
2023-03-26T17:46:33.901Z,98919.37
2023-03-26T17:49:37.541Z,98923.28
2023-03-26T17:52:49.678Z,98928.94
2023-03-26T17:55:53.964Z,98928.41
2023-03-26T17:59:11.526Z,98921.19
2023-03-26T18:02:32.224Z,98928.50
2023-03-26T18:05:39.094Z,98930.53
2023-03-26T18:08:48.332Z,98936.41
2023-03-26T18:11:51.543Z,98937.81
2023-03-26T18:15:10.685Z,98935.53
2023-03-26T18:18:19.961Z,98933.72
2023-03-26T18:21:50.507Z,98930.59
2023-03-26T18:24:59.808Z,98930.06
2023-03-26T18:28:02.835Z,98916.81
2023-03-26T18:31:21.111Z,98933.22
2023-03-26T18:34:26.169Z,98930.03
2023-03-26T18:37:34.400Z,98939.25
2023-03-26T18:40:41.378Z,98926.31
2023-03-26T18:43:44.835Z,98921.47
2023-03-26T18:46:47.926Z,98927.81
2023-03-26T18:49:54.723Z,98921.66
2023-03-26T18:53:00.368Z,98914.09
2023-03-26T18:56:27.628Z,98917.25
2023-03-26T18:59:35.175Z,98890.75
2023-03-26T19:02:38.570Z,98891.00
2023-03-26T19:05:41.637Z,98888.81
2023-03-26T19:08:46.007Z,98882.13
2023-03-26T19:11:50.622Z,98872.59
2023-03-26T19:15:16.145Z,98874.72
2023-03-26T19:18:24.931Z,98860.59
2023-03-26T19:21:28.634Z,98861.72
2023-03-26T19:24:31.974Z,98846.84
2023-03-26T19:27:38.597Z,98846.91
2023-03-26T19:30:43.998Z,98839.88
2023-03-26T19:33:58.027Z,98841.53
2023-03-26T19:37:03.092Z,98839.06
2023-03-26T19:40:17.591Z,98822.84
2023-03-26T19:43:22.275Z,98842.03
2023-03-26T19:46:26.819Z,98843.03
2023-03-26T19:50:04.332Z,98842.25
2023-03-26T19:53:37.430Z,98840.38
2023-03-26T19:56:40.680Z,98842.16
2023-03-26T19:59:43.914Z,98845.06
2023-03-26T20:02:54.070Z,98826.22
2023-03-26T20:05:57.503Z,98823.34
2023-03-26T20:09:00.527Z,98814.06
2023-03-26T20:12:03.758Z,98823.97
2023-03-26T20:15:37.124Z,98818.38
2023-03-26T20:18:40.229Z,98818.97
2023-03-26T20:21:44.433Z,98812.56
2023-03-26T20:24:48.176Z,98815.28
2023-03-26T20:27:53.094Z,98818.78
2023-03-26T20:30:58.720Z,98819.03
2023-03-26T20:34:02.573Z,98813.75
2023-03-26T20:37:05.561Z,98799.53
2023-03-26T20:40:08.845Z,98802.50
2023-03-26T20:43:18.434Z,98800.75
2023-03-26T20:46:31.316Z,98796.47
2023-03-26T20:49:35.438Z,98806.50
2023-03-26T20:52:38.496Z,98808.44
2023-03-26T20:55:44.057Z,98803.16
2023-03-26T20:58:54.763Z,98800.62
2023-03-26T21:02:03.492Z,98795.31
2023-03-26T21:05:09.318Z,98793.56
2023-03-26T21:08:18.269Z,98786.53
2023-03-26T21:11:35.832Z,98793.91
2023-03-26T21:14:41.932Z,98778.97
2023-03-26T21:17:44.840Z,98782.84
2023-03-26T21:21:14.104Z,98767.00
2023-03-26T21:24:58.291Z,98771.25
2023-03-26T21:28:09.483Z,98779.81
2023-03-26T21:31:21.078Z,98765.59
2023-03-26T21:34:24.357Z,98760.59
2023-03-26T21:37:27.723Z,98760.84
2023-03-26T21:40:31.450Z,98762.00
2023-03-26T21:43:34.155Z,98757.78
2023-03-26T21:46:37.300Z,98747.84
2023-03-26T21:49:40.350Z,98746.16
2023-03-26T21:52:50.893Z,98741.81
2023-03-26T21:56:31.388Z,98739.06
2023-03-26T21:59:51.804Z,98730.88
2023-03-26T22:03:16.100Z,98740.97
2023-03-26T22:06:32.461Z,98727.75
2023-03-26T22:09:36.537Z,98735.97
2023-03-26T22:12:39.739Z,98740.62
2023-03-26T22:15:42.280Z,98739.75
2023-03-26T22:18:45.214Z,98743.53
2023-03-26T22:21:47.937Z,98741.78
2023-03-26T22:24:50.761Z,98746.41
2023-03-26T22:27:54.089Z,98746.47
2023-03-26T22:30:57.385Z,98748.28
2023-03-26T22:34:00.194Z,98745.59
2023-03-26T22:37:03.023Z,98737.53
2023-03-26T22:40:09.160Z,98735.78
2023-03-26T22:43:12.297Z,98724.41
2023-03-26T22:46:15.382Z,98720.75
2023-03-26T22:49:18.681Z,98718.09
2023-03-26T22:52:21.258Z,98718.88
2023-03-26T22:55:28.418Z,98709.84
2023-03-26T22:58:33.644Z,98711.69
2023-03-26T23:01:37.036Z,98703.69
2023-03-26T23:04:40.560Z,98701.78
2023-03-26T23:07:43.733Z,98697.28
2023-03-26T23:10:47.107Z,98690.97
2023-03-26T23:13:50.494Z,98693.59
2023-03-26T23:16:53.282Z,98699.09
2023-03-26T23:19:56.239Z,98694.59
2023-03-26T23:22:58.845Z,98687.41
2023-03-26T23:26:03.843Z,98684.53
2023-03-26T23:29:06.681Z,98680.16
2023-03-26T23:32:23.509Z,98683.00
2023-03-26T23:35:27.522Z,98685.81
2023-03-26T23:38:44.145Z,98684.16
2023-03-26T23:41:47.288Z,98692.28
2023-03-26T23:44:50.158Z,98680.75
2023-03-26T23:47:52.680Z,98681.56
2023-03-26T23:51:03.907Z,98668.56
2023-03-26T23:54:08.829Z,98681.72
2023-03-26T23:57:11.996Z,98668.31
